createdAt,value
2023-05-01T00:00:14.508Z,95384.78
2023-05-01T00:03:16.749Z,95388.63
2023-05-01T00:06:18.693Z,95394.84
2023-05-01T00:09:27.172Z,95385.59
2023-05-01T00:12:31.074Z,95380.94
2023-05-01T00:15:33.957Z,95380.53
2023-05-01T00:18:37.091Z,95367.78
2023-05-01T00:21:39.386Z,95355.44
2023-05-01T00:24:41.877Z,95366.63
2023-05-01T00:27:48.655Z,95349.25
2023-05-01T00:30:50.933Z,95351.22
2023-05-01T00:33:52.676Z,95336.53
2023-05-01T00:36:55.846Z,95336.53
2023-05-01T00:39:58.040Z,95340.38
2023-05-01T00:43:02.327Z,95334.56
2023-05-01T00:46:04.298Z,95331.09
2023-05-01T00:49:06.310Z,95336.09
2023-05-01T00:52:08.258Z,95328.78
2023-05-01T00:55:11.904Z,95331.06
2023-05-01T00:58:17.759Z,95337.63
2023-05-01T01:01:22.072Z,95329.13
2023-05-01T01:04:28.134Z,95341.84
2023-05-01T01:07:42.719Z,95340.25
2023-05-01T01:10:52.922Z,95354.16
2023-05-01T01:14:05.772Z,95342.56
2023-05-01T01:17:14.223Z,95362.53
2023-05-01T01:20:33.100Z,95350.19
2023-05-01T01:24:03.450Z,95362.50
2023-05-01T01:27:39.785Z,95348.59
2023-05-01T01:31:09.518Z,95350.47
2023-05-01T01:34:20.885Z,95355.78
2023-05-01T01:37:29.298Z,95344.13
2023-05-01T01:40:35.271Z,95351.84
2023-05-01T01:43:40.637Z,95341.38
2023-05-01T01:46:43.187Z,95344.53
2023-05-01T01:49:50.224Z,95333.47
2023-05-01T01:52:53.963Z,95330.75
2023-05-01T01:55:58.146Z,95327.94
2023-05-01T01:59:01.867Z,95328.22
2023-05-01T02:02:08.852Z,95323.09
2023-05-01T02:05:16.372Z,95316.19
2023-05-01T02:08:19.627Z,95314.47
2023-05-01T02:11:22.146Z,95308.28
2023-05-01T02:14:27.044Z,95312.59
2023-05-01T02:17:30.486Z,95306.34
2023-05-01T02:20:39.448Z,95295.53
2023-05-01T02:23:41.970Z,95297.06
2023-05-01T02:26:55.288Z,95301.75
2023-05-01T02:29:57.600Z,95292.50
2023-05-01T02:32:59.716Z,95299.91
2023-05-01T02:36:05.962Z,95295.97
2023-05-01T02:39:07.974Z,95292.69
2023-05-01T02:42:12.254Z,95290.88
2023-05-01T02:45:20.231Z,95282.09
2023-05-01T02:48:27.100Z,95283.25
2023-05-01T02:51:32.855Z,95291.28
2023-05-01T02:54:35.066Z,95277.44
2023-05-01T02:57:39.244Z,95282.91
2023-05-01T03:00:42.040Z,95274.03
2023-05-01T03:03:45.225Z,95277.44
2023-05-01T03:06:50.953Z,95265.22
2023-05-01T03:09:53.230Z,95261.69
2023-05-01T03:12:55.199Z,95259.44
2023-05-01T03:15:58.199Z,95250.16
2023-05-01T03:19:00.074Z,95265.09
2023-05-01T03:22:04.363Z,95253.53
2023-05-01T03:25:10.237Z,95253.03
2023-05-01T03:28:12.292Z,95256.09
2023-05-01T03:31:14.598Z,95257.88
2023-05-01T03:34:16.612Z,95263.38
2023-05-01T03:37:21.684Z,95270.38
2023-05-01T03:40:23.836Z,95269.28
2023-05-01T03:43:26.432Z,95272.78
2023-05-01T03:46:28.558Z,95276.13
2023-05-01T03:49:33.060Z,95280.13
2023-05-01T03:52:38.391Z,95276.47
2023-05-01T03:55:40.616Z,95269.22
2023-05-01T03:58:42.630Z,95263.88
2023-05-01T04:01:44.771Z,95266.91
2023-05-01T04:04:46.618Z,95265.69
2023-05-01T04:07:50.010Z,95253.13
2023-05-01T04:10:52.028Z,95257.28
2023-05-01T04:13:55.342Z,95253.75
2023-05-01T04:16:58.216Z,95248.66
2023-05-01T04:20:00.334Z,95244.78
2023-05-01T04:23:03.467Z,95249.84
2023-05-01T04:26:05.345Z,95241.94
2023-05-01T04:29:07.112Z,95242.22
2023-05-01T04:32:09.316Z,95251.00
2023-05-01T04:35:11.248Z,95245.28
2023-05-01T04:38:14.573Z,95253.34
2023-05-01T04:41:16.513Z,95242.22
2023-05-01T04:44:19.948Z,95252.94
2023-05-01T04:47:21.714Z,95245.09
2023-05-01T04:50:29.275Z,95248.19
2023-05-01T04:53:32.565Z,95237.69
2023-05-01T04:56:35.135Z,95245.44
2023-05-01T04:59:37.051Z,95238.94
2023-05-01T05:02:39.046Z,95241.94
2023-05-01T05:05:42.245Z,95235.44
2023-05-01T05:08:45.346Z,95231.13
2023-05-01T05:11:49.947Z,95236.53
2023-05-01T05:14:52.277Z,95239.03
2023-05-01T05:17:55.899Z,95237.88
2023-05-01T05:20:58.716Z,95234.28
2023-05-01T05:24:01.881Z,95233.59
2023-05-01T05:27:06.254Z,95230.94
2023-05-01T05:30:09.934Z,95221.34
2023-05-01T05:33:12.244Z,95216.09
2023-05-01T05:36:15.808Z,95217.56
2023-05-01T05:39:21.435Z,95199.47
2023-05-01T05:42:25.467Z,95205.78
2023-05-01T05:45:31.590Z,95208.91
2023-05-01T05:48:33.341Z,95199.72
2023-05-01T05:51:35.101Z,95202.47
2023-05-01T05:54:38.226Z,95204.00
2023-05-01T05:57:43.640Z,95203.97
2023-05-01T06:00:46.205Z,95188.13
2023-05-01T06:03:50.456Z,95199.72
2023-05-01T06:06:52.475Z,95199.75
2023-05-01T06:09:58.244Z,95194.81
2023-05-01T06:13:07.165Z,95189.47
2023-05-01T06:16:16.667Z,95205.63
2023-05-01T06:19:18.803Z,95203.75
2023-05-01T06:22:24.387Z,95196.50
2023-05-01T06:25:28.071Z,95198.69
2023-05-01T06:28:30.211Z,95203.69
2023-05-01T06:31:31.995Z,95205.31
2023-05-01T06:34:35.338Z,95201.47
2023-05-01T06:37:39.492Z,95201.56
2023-05-01T06:40:43.151Z,95200.44
2023-05-01T06:43:44.936Z,95198.88
2023-05-01T06:46:46.734Z,95198.56
2023-05-01T06:49:49.136Z,95194.38
2023-05-01T06:52:52.142Z,95192.84
2023-05-01T06:55:58.199Z,95192.47
2023-05-01T06:59:00.202Z,95192.84
2023-05-01T08:36:42.182Z,95186.47
2023-05-01T08:39:43.915Z,95184.94
2023-05-01T08:42:45.692Z,95172.44
2023-05-01T08:45:47.835Z,95178.94
2023-05-01T08:48:51.765Z,95182.66
2023-05-01T08:51:55.313Z,95182.59
2023-05-01T08:54:59.800Z,95183.38
2023-05-01T08:58:02.043Z,95178.94
2023-05-01T09:01:04.306Z,95183.53
2023-05-01T09:04:07.589Z,95179.91
2023-05-01T09:07:11.317Z,95173.38
2023-05-01T09:10:15.268Z,95177.41
2023-05-01T09:13:17.153Z,95183.16
2023-05-01T09:16:19.474Z,95183.03
2023-05-01T09:19:21.388Z,95182.47
2023-05-01T09:22:24.797Z,95181.63
2023-05-01T09:25:26.551Z,95182.13
2023-05-01T09:28:40.001Z,95171.38
2023-05-01T09:31:41.806Z,95178.66
2023-05-01T09:34:44.080Z,95174.56
2023-05-01T09:37:50.242Z,95172.59
2023-05-01T09:40:54.778Z,95174.97
2023-05-01T09:43:57.547Z,95173.03
2023-05-01T09:46:59.371Z,95173.34
2023-05-01T09:50:01.174Z,95168.56
2023-05-01T09:53:05.418Z,95172.28
2023-05-01T09:56:07.607Z,95176.06
2023-05-01T09:59:16.531Z,95172.56
2023-05-01T10:02:28.895Z,95159.75
2023-05-01T10:05:42.857Z,95156.06
2023-05-01T10:08:47.488Z,95156.50
2023-05-01T10:11:53.943Z,95159.31
2023-05-01T10:14:57.666Z,95163.84
2023-05-01T10:17:59.849Z,95159.47
2023-05-01T10:21:04.404Z,95163.28
2023-05-01T10:24:07.686Z,95161.16
2023-05-01T10:27:09.631Z,95162.69
2023-05-01T10:30:11.893Z,95160.97
2023-05-01T10:33:13.802Z,95155.16
2023-05-01T10:36:20.843Z,95162.81
2023-05-01T10:39:34.542Z,95165.19
2023-05-01T10:43:21.240Z,95160.34
2023-05-01T10:46:29.427Z,95153.91
2023-05-01T10:50:09.923Z,95152.28
2023-05-01T10:53:18.259Z,95159.09
2023-05-01T10:56:43.468Z,95145.72
2023-05-01T11:00:13.253Z,95148.22
2023-05-01T11:03:37.117Z,95152.97
2023-05-01T11:06:39.127Z,95147.19
2023-05-01T11:09:42.502Z,95147.75
2023-05-01T11:12:52.767Z,95143.75
2023-05-01T11:15:54.617Z,95139.50
2023-05-01T11:18:56.484Z,95146.28
2023-05-01T11:21:58.709Z,95142.06
2023-05-01T11:25:01.063Z,95136.94
2023-05-01T11:28:04.352Z,95134.59
2023-05-01T11:31:06.485Z,95136.03
2023-05-01T11:34:08.723Z,95135.19
2023-05-01T11:37:10.549Z,95131.31
2023-05-01T11:40:23.779Z,95122.47
2023-05-01T11:43:27.341Z,95122.34
2023-05-01T11:46:30.452Z,95119.41
2023-05-01T11:49:32.381Z,95119.88
2023-05-01T11:52:42.280Z,95112.28
2023-05-01T11:55:44.648Z,95109.22
2023-05-01T11:58:47.777Z,95109.25
2023-05-01T12:01:49.584Z,95103.47
2023-05-01T12:04:51.533Z,95107.63
2023-05-01T12:08:06.653Z,95102.16
2023-05-01T12:11:08.701Z,95101.94
2023-05-01T12:14:13.984Z,95100.06
2023-05-01T12:17:15.811Z,95092.97
2023-05-01T12:20:17.766Z,95089.22
2023-05-01T12:23:20.807Z,95083.44
2023-05-01T12:26:23.845Z,95085.06
2023-05-01T12:29:39.138Z,95081.31
2023-05-01T12:32:41.058Z,95081.88
2023-05-01T12:35:44.141Z,95086.38
2023-05-01T12:38:55.423Z,95077.34
2023-05-01T12:41:57.306Z,95075.72
2023-05-01T12:45:01.328Z,95070.47
2023-05-01T12:48:09.648Z,95076.69
2023-05-01T12:51:18.600Z,95073.41
2023-05-01T12:54:21.621Z,95072.06
2023-05-01T12:57:23.417Z,95076.91
2023-05-01T13:00:26.508Z,95066.50
2023-05-01T13:03:29.612Z,95063.56
2023-05-01T13:06:32.595Z,95057.59
2023-05-01T13:09:34.511Z,95063.13
2023-05-01T13:12:44.500Z,95058.16
2023-05-01T13:15:48.001Z,95065.78
2023-05-01T13:18:51.366Z,95063.44
2023-05-01T13:21:53.262Z,95055.31
2023-05-01T13:24:55.119Z,95054.91
2023-05-01T13:27:56.996Z,95049.31
2023-05-01T13:31:00.224Z,95056.56
2023-05-01T13:34:04.392Z,95050.91
2023-05-01T13:37:10.399Z,95045.19
2023-05-01T13:40:13.076Z,95050.78
2023-05-01T13:43:15.171Z,95044.03
2023-05-01T13:46:20.211Z,95046.78
2023-05-01T13:49:22.049Z,95046.53
2023-05-01T13:52:23.775Z,95050.53
2023-05-01T13:55:25.612Z,95045.41
2023-05-01T13:58:28.757Z,95042.59
2023-05-01T14:01:35.807Z,95047.19
2023-05-01T14:04:40.205Z,95051.72
2023-05-01T14:07:50.354Z,95037.19
2023-05-01T14:10:52.159Z,95039.91
2023-05-01T14:13:58.950Z,95031.28
2023-05-01T14:17:02.196Z,95034.69
2023-05-01T14:20:05.442Z,95040.41
2023-05-01T14:23:07.206Z,95038.66
2023-05-01T14:26:09.196Z,95035.50
2023-05-01T14:29:21.384Z,95028.97
2023-05-01T14:32:24.747Z,95020.66
2023-05-01T14:35:26.587Z,95027.66
2023-05-01T14:38:28.870Z,95022.94
2023-05-01T14:41:31.893Z,95026.22
2023-05-01T14:44:33.811Z,95020.53
2023-05-01T14:47:39.518Z,95021.72
2023-05-01T14:50:42.266Z,95024.69
2023-05-01T14:53:44.104Z,95034.75
2023-05-01T14:56:47.167Z,95016.34
2023-05-01T14:59:48.991Z,95029.59
2023-05-01T15:02:52.258Z,95026.66
2023-05-01T15:05:54.234Z,95024.47
2023-05-01T15:08:55.998Z,95030.78
2023-05-01T15:11:57.762Z,95022.63
2023-05-01T15:14:59.742Z,95026.88
2023-05-01T15:18:03.309Z,95025.56
2023-05-01T15:21:05.266Z,95021.72
2023-05-01T15:24:07.070Z,95029.72
2023-05-01T15:27:08.855Z,95034.66
2023-05-01T15:30:11.190Z,95024.72
2023-05-01T15:33:17.861Z,95024.59
2023-05-01T15:36:20.432Z,95031.84
2023-05-01T15:39:22.384Z,95024.47
2023-05-01T15:42:24.248Z,95031.59
2023-05-01T15:45:25.992Z,95031.66
2023-05-01T15:48:29.149Z,95040.53
2023-05-01T15:51:31.080Z,95038.13
2023-05-01T15:54:32.840Z,95045.53
2023-05-01T15:57:34.936Z,95050.94
2023-05-01T16:00:36.729Z,95047.78
2023-05-01T16:03:44.757Z,95048.22
2023-05-01T16:06:46.956Z,95046.25
2023-05-01T16:09:49.180Z,95055.59
2023-05-01T16:12:52.758Z,95054.94
2023-05-01T16:15:54.594Z,95061.50
2023-05-01T16:18:59.220Z,95065.84
2023-05-01T16:22:03.064Z,95062.34
2023-05-01T16:25:05.940Z,95061.28
2023-05-01T16:28:07.936Z,95061.19
2023-05-01T16:31:23.299Z,95068.34
2023-05-01T16:34:30.106Z,95074.81
2023-05-01T16:37:34.081Z,95062.41
2023-05-01T16:40:36.587Z,95064.03
2023-05-01T16:43:38.354Z,95070.84
2023-05-01T16:46:40.916Z,95072.69
2023-05-01T16:49:44.172Z,95079.41
2023-05-01T16:52:45.949Z,95084.84
2023-05-01T16:55:47.972Z,95093.00
2023-05-01T16:58:49.934Z,95096.91
2023-05-01T17:01:52.054Z,95099.31
2023-05-01T17:04:55.290Z,95113.06
2023-05-01T17:07:57.254Z,95107.97
2023-05-01T17:10:58.974Z,95108.31
2023-05-01T17:14:00.881Z,95115.34
2023-05-01T17:20:14.254Z,95118.41
2023-05-01T17:23:16.518Z,95122.94
2023-05-01T17:26:20.356Z,95113.31
2023-05-01T17:29:22.558Z,95123.34
2023-05-01T17:32:33.525Z,95128.88
2023-05-01T17:35:40.785Z,95132.75
2023-05-01T17:38:42.857Z,95139.59
2023-05-01T17:41:44.867Z,95141.69
2023-05-01T17:44:47.594Z,95141.84
2023-05-01T17:47:50.087Z,95137.44
2023-05-01T17:50:54.133Z,95136.56
2023-05-01T17:53:56.350Z,95140.22
2023-05-01T17:56:58.725Z,95148.06
2023-05-01T18:00:01.559Z,95149.28
2023-05-01T18:03:04.254Z,95144.69
2023-05-01T18:06:08.386Z,95153.13
2023-05-01T18:09:10.992Z,95161.00
2023-05-01T18:12:14.638Z,95166.00
2023-05-01T18:15:22.130Z,95166.34
2023-05-01T18:18:26.346Z,95171.94
2023-05-01T18:21:30.061Z,95180.84
2023-05-01T18:24:33.538Z,95180.81
2023-05-01T18:27:35.467Z,95180.53
2023-05-01T18:30:43.475Z,95185.88
2023-05-01T18:33:49.571Z,95201.00
2023-05-01T18:36:53.841Z,95199.53
2023-05-01T18:39:56.105Z,95215.75
2023-05-01T18:42:58.578Z,95222.38
2023-05-01T18:46:00.633Z,95224.13
2023-05-01T18:49:02.568Z,95231.84
2023-05-01T18:52:07.916Z,95240.13
2023-05-01T18:55:12.195Z,95252.72
2023-05-01T18:58:14.581Z,95260.63
2023-05-01T19:01:18.525Z,95265.22
2023-05-01T19:04:23.739Z,95268.06
2023-05-01T19:07:28.001Z,95265.72
2023-05-01T19:10:31.659Z,95271.47
2023-05-01T19:13:34.324Z,95271.91
2023-05-01T19:16:37.323Z,95266.97
2023-05-01T19:19:40.410Z,95267.31
2023-05-01T19:22:45.367Z,95279.16
2023-05-01T19:25:48.907Z,95275.13
2023-05-01T19:28:51.661Z,95280.06
2023-05-01T19:31:54.244Z,95281.63
2023-05-01T19:34:56.998Z,95288.22
2023-05-01T19:38:01.384Z,95296.44
2023-05-01T19:41:04.733Z,95296.47
2023-05-01T19:44:07.178Z,95303.41
2023-05-01T19:47:10.368Z,95309.13
2023-05-01T19:50:13.040Z,95310.41
2023-05-01T19:53:17.983Z,95315.53
2023-05-01T19:56:20.033Z,95327.72
2023-05-01T19:59:22.863Z,95326.50
2023-05-01T20:02:25.815Z,95335.78
2023-05-01T20:05:28.155Z,95341.22
2023-05-01T20:08:31.948Z,95349.50
2023-05-01T20:11:34.747Z,95348.00
2023-05-01T20:14:37.164Z,95359.72
2023-05-01T20:17:39.005Z,95361.75
2023-05-01T20:20:41.782Z,95357.97
2023-05-01T20:23:46.926Z,95359.09
2023-05-01T20:26:49.722Z,95359.13
2023-05-01T20:29:52.738Z,95361.78
2023-05-01T20:32:54.907Z,95361.78
2023-05-01T20:35:56.949Z,95369.94
2023-05-01T20:39:03.732Z,95364.19
2023-05-01T20:42:05.568Z,95360.78
2023-05-01T20:45:10.055Z,95363.13
2023-05-01T20:48:12.512Z,95360.78
2023-05-01T20:51:14.994Z,95355.00
2023-05-01T20:54:18.356Z,95353.06
2023-05-01T20:57:20.176Z,95356.19
2023-05-01T21:00:21.966Z,95358.91
2023-05-01T21:03:24.543Z,95354.28
2023-05-01T21:06:27.604Z,95358.94
2023-05-01T21:09:30.836Z,95357.41
2023-05-01T21:12:32.882Z,95363.56
2023-05-01T21:15:35.133Z,95361.28
2023-05-01T21:18:38.188Z,95374.38
2023-05-01T21:21:40.435Z,95374.00
2023-05-01T21:24:52.134Z,95382.13
2023-05-01T21:27:54.525Z,95385.97
2023-05-01T21:30:56.483Z,95392.94
2023-05-01T21:34:00.909Z,95392.91
2023-05-01T21:37:05.672Z,95385.19
2023-05-01T21:40:14.068Z,95386.75
2023-05-01T21:43:16.369Z,95391.75
2023-05-01T21:46:19.372Z,95394.84
2023-05-01T21:49:22.357Z,95395.63
2023-05-01T21:52:24.495Z,95400.25
2023-05-01T21:55:27.968Z,95398.31
2023-05-01T21:58:30.052Z,95408.34
2023-05-01T22:01:32.758Z,95406.81
2023-05-01T22:04:35.183Z,95413.78
2023-05-01T22:07:39.279Z,95415.72
2023-05-01T22:10:42.519Z,95415.31
2023-05-01T22:13:47.137Z,95412.59
2023-05-01T22:16:51.525Z,95419.94
2023-05-01T22:19:54.166Z,95421.84
2023-05-01T22:22:56.568Z,95429.19
2023-05-01T22:25:59.942Z,95431.50
2023-05-01T22:29:01.783Z,95428.00
2023-05-01T22:32:04.137Z,95426.84
2023-05-01T22:35:06.868Z,95432.63
2023-05-01T22:38:10.265Z,95434.16
2023-05-01T22:41:13.680Z,95435.31
2023-05-01T22:44:15.695Z,95436.50
2023-05-01T22:47:17.519Z,95440.78
2023-05-01T22:50:19.361Z,95444.66
2023-05-01T22:53:21.416Z,95443.88
2023-05-01T22:56:24.544Z,95447.78
2023-05-01T22:59:28.045Z,95443.13
2023-05-01T23:02:30.111Z,95440.06
2023-05-01T23:05:32.366Z,95449.69
2023-05-01T23:08:34.236Z,95442.34
2023-05-01T23:11:41.100Z,95437.72
2023-05-01T23:14:45.853Z,95437.34
2023-05-01T23:17:47.929Z,95437.72
2023-05-01T23:20:51.367Z,95447.75
2023-05-01T23:23:57.033Z,95444.28
2023-05-01T23:27:00.716Z,95440.41
2023-05-01T23:30:07.772Z,95444.63
2023-05-01T23:33:11.313Z,95444.63
2023-05-01T23:36:13.461Z,95442.69
2023-05-01T23:39:15.447Z,95445.00
2023-05-01T23:42:19.887Z,95444.59
2023-05-01T23:45:21.940Z,95445.75
2023-05-01T23:48:23.854Z,95441.47
2023-05-01T23:51:26.044Z,95441.50
2023-05-01T23:54:27.964Z,95438.75
2023-05-01T23:57:31.423Z,95437.63
